PWSweather.com
Personal Weather Stations
Station Observations
KNCCHINA3
Red Tractor Trail, China Grove, NC 28023

Red Tractor TrailChina Grove, NC 28023

Lat: 35.59751, Lon: -80.60201

Elevation: 800

Station Type: Oregon Scientific WMR 968

http://www.joesweathergarage.com

Latest ConditionsUpdated 4:47:40 AM EDT Saturday, Nov 1, 2014
Currently Today's Max Today's Min Today's Average
Temperature 42.6°F5.9°C 46.9°F8.3°C 42.6°F5.9°C 44.9°F7.2°C
Dew Point 42.6°F5.9°C 46.9°F8.3°C 42.6°F5.9°C 44.9°F7.2°C
Winds - N16091.8 kmh N Calm Calm - Calm Calm
Wind Gusts -- -- - -
Humidity 100% 100% 100% 100%
Pressure 29.71 in1006.1 mb 29.77 in1008.1 mb 29.68 in1005.1 mb -
Precipitation - 0.16 in4.1 mm - -
Hour Temp Dew Point Humidity Winds Wind Gusts Pressure Precip Precip Rate Daily Precip Total
04:47 AM 42.6°F5.9°C 42.6°F5.9°C 100% - N16091.8 kmh N -- 29.71 in1006.1 mb 0.04 in1.0 mm 0.00 in/hr0.0 mm/hr 0.16 in4.1 mm
04:42 AM 42.8°F6.0°C 42.8°F6.0°C 100% - N16091.8 kmh N -- 29.68 in1005.1 mb 0.04 in1.0 mm 0.00 in/hr0.0 mm/hr 0.16 in4.1 mm
04:37 AM 42.8°F6.0°C 42.8°F6.0°C 100% - N16091.8 kmh N -- 29.68 in1005.1 mb 0.04 in1.0 mm 0.00 in/hr0.0 mm/hr 0.16 in4.1 mm
04:31 AM 43.0°F6.1°C 43.0°F6.1°C 100% - N16091.8 kmh N -- 29.68 in1005.1 mb 0.04 in1.0 mm 0.00 in/hr0.0 mm/hr 0.16 in4.1 mm
04:26 AM 43.0°F6.1°C 43.0°F6.1°C 100% - N16091.8 kmh N -- 29.71 in1006.1 mb 0.04 in1.0 mm 0.00 in/hr0.0 mm/hr 0.16 in4.1 mm
04:21 AM 43.0°F6.1°C 43.0°F6.1°C 100% - N16091.8 kmh N -- 29.71 in1006.1 mb 0.04 in1.0 mm 0.48 in/hr12.2 mm/hr 0.16 in4.1 mm
04:16 AM 43.2°F6.2°C 43.2°F6.2°C 100% - N16091.8 kmh N -- 29.71 in1006.1 mb 0.00 in0.0 mm 0.00 in/hr0.0 mm/hr 0.12 in3.0 mm
04:11 AM 43.3°F6.3°C 43.3°F6.3°C 100% - N16091.8 kmh N -- 29.71 in1006.1 mb 0.00 in0.0 mm 0.00 in/hr0.0 mm/hr 0.12 in3.0 mm
04:06 AM 43.3°F6.3°C 43.3°F6.3°C 100% - N16091.8 kmh N -- 29.71 in1006.1 mb 0.00 in0.0 mm 0.00 in/hr0.0 mm/hr 0.12 in3.0 mm
04:01 AM 43.5°F6.4°C 43.5°F6.4°C 100% - N16091.8 kmh N -- 29.71 in1006.1 mb 0.00 in0.0 mm 0.00 in/hr0.0 mm/hr 0.12 in3.0 mm
03:56 AM 43.5°F6.4°C 43.5°F6.4°C 100% - N16091.8 kmh N -- 29.71 in1006.1 mb 0.04 in1.0 mm 0.00 in/hr0.0 mm/hr 0.12 in3.0 mm
03:50 AM 43.7°F6.5°C 43.7°F6.5°C 100% - N16091.8 kmh N -- 29.71 in1006.1 mb 0.04 in1.0 mm 0.00 in/hr0.0 mm/hr 0.12 in3.0 mm
03:45 AM 43.7°F6.5°C 43.7°F6.5°C 100% - N16091.8 kmh N -- 29.71 in1006.1 mb 0.04 in1.0 mm 0.00 in/hr0.0 mm/hr 0.12 in3.0 mm
03:40 AM 43.9°F6.6°C 43.9°F6.6°C 100% - N16091.8 kmh N -- 29.71 in1006.1 mb 0.04 in1.0 mm 0.00 in/hr0.0 mm/hr 0.12 in3.0 mm
03:35 AM 44.1°F6.7°C 44.1°F6.7°C 100% - N16091.8 kmh N -- 29.71 in1006.1 mb 0.04 in1.0 mm 0.00 in/hr0.0 mm/hr 0.12 in3.0 mm
03:30 AM 44.1°F6.7°C 44.1°F6.7°C 100% - N16091.8 kmh N -- 29.71 in1006.1 mb 0.08 in2.0 mm 0.00 in/hr0.0 mm/hr 0.12 in3.0 mm
03:25 AM 44.1°F6.7°C 44.1°F6.7°C 100% - N16091.8 kmh N -- 29.71 in1006.1 mb 0.08 in2.0 mm 0.00 in/hr0.0 mm/hr 0.12 in3.0 mm
03:19 AM 44.1°F6.7°C 44.1°F6.7°C 100% - N16091.8 kmh N -- 29.71 in1006.1 mb 0.08 in2.0 mm 0.00 in/hr0.0 mm/hr 0.12 in3.0 mm
03:14 AM 44.2°F6.8°C 44.2°F6.8°C 100% - N16091.8 kmh N -- 29.71 in1006.1 mb 0.08 in2.0 mm 0.00 in/hr0.0 mm/hr 0.12 in3.0 mm
03:09 AM 44.2°F6.8°C 44.2°F6.8°C 100% - N16091.8 kmh N -- 29.74 in1007.1 mb 0.08 in2.0 mm 0.00 in/hr0.0 mm/hr 0.12 in3.0 mm
03:04 AM 44.4°F6.9°C 44.4°F6.9°C 100% - N16091.8 kmh N -- 29.74 in1007.1 mb 0.12 in3.0 mm 0.00 in/hr0.0 mm/hr 0.12 in3.0 mm
02:59 AM 44.6°F7.0°C 44.6°F7.0°C 100% - N16091.8 kmh N -- 29.74 in1007.1 mb 0.12 in3.0 mm 0.48 in/hr12.2 mm/hr 0.12 in3.0 mm
02:54 AM 44.6°F7.0°C 44.6°F7.0°C 100% - N16091.8 kmh N -- 29.74 in1007.1 mb 0.08 in2.0 mm 0.00 in/hr0.0 mm/hr 0.08 in2.0 mm
02:49 AM 44.8°F7.1°C 44.8°F7.1°C 100% - N16091.8 kmh N -- 29.74 in1007.1 mb 0.08 in2.0 mm 0.00 in/hr0.0 mm/hr 0.08 in2.0 mm
02:44 AM 44.8°F7.1°C 44.8°F7.1°C 100% - N16091.8 kmh N -- 29.74 in1007.1 mb 0.08 in2.0 mm 0.00 in/hr0.0 mm/hr 0.08 in2.0 mm
02:39 AM 45.0°F7.2°C 45.0°F7.2°C 100% - N16091.8 kmh N -- 29.74 in1007.1 mb 0.08 in2.0 mm 0.00 in/hr0.0 mm/hr 0.08 in2.0 mm
02:34 AM 45.0°F7.2°C 45.0°F7.2°C 100% - N16091.8 kmh N -- 29.74 in1007.1 mb 0.08 in2.0 mm 0.40 in/hr10.2 mm/hr 0.08 in2.0 mm
02:28 AM 45.1°F7.3°C 45.1°F7.3°C 100% - N16091.8 kmh N -- 29.74 in1007.1 mb 0.04 in1.0 mm 0.00 in/hr0.0 mm/hr 0.04 in1.0 mm
02:23 AM 45.1°F7.3°C 45.1°F7.3°C 100% - N16091.8 kmh N -- 29.74 in1007.1 mb 0.04 in1.0 mm 0.00 in/hr0.0 mm/hr 0.04 in1.0 mm
02:18 AM 45.1°F7.3°C 45.1°F7.3°C 100% - N16091.8 kmh N -- 29.74 in1007.1 mb 0.04 in1.0 mm 0.00 in/hr0.0 mm/hr 0.04 in1.0 mm
02:13 AM 45.3°F7.4°C 45.3°F7.4°C 100% - N16091.8 kmh N -- 29.74 in1007.1 mb 0.04 in1.0 mm 0.00 in/hr0.0 mm/hr 0.04 in1.0 mm
02:08 AM 45.3°F7.4°C 45.3°F7.4°C 100% - N16091.8 kmh N -- 29.74 in1007.1 mb 0.04 in1.0 mm 0.48 in/hr12.2 mm/hr 0.04 in1.0 mm
02:03 AM 45.3°F7.4°C 45.3°F7.4°C 100% - N16091.8 kmh N -- 29.74 in1007.1 mb 0.00 in0.0 mm 0.00 in/hr0.0 mm/hr 0.00 in0.0 mm
01:57 AM 45.5°F7.5°C 45.5°F7.5°C 100% - N16091.8 kmh N -- 29.74 in1007.1 mb 0.00 in0.0 mm 0.00 in/hr0.0 mm/hr 0.00 in0.0 mm
01:52 AM 45.3°F7.4°C 45.3°F7.4°C 100% - N16091.8 kmh N -- 29.74 in1007.1 mb 0.00 in0.0 mm 0.00 in/hr0.0 mm/hr 0.00 in0.0 mm
01:47 AM 45.3°F7.4°C 45.3°F7.4°C 100% - N16091.8 kmh N -- 29.74 in1007.1 mb 0.00 in0.0 mm 0.00 in/hr0.0 mm/hr 0.00 in0.0 mm
01:42 AM 45.3°F7.4°C 45.3°F7.4°C 100% - N16091.8 kmh N -- 29.74 in1007.1 mb 0.00 in0.0 mm 0.00 in/hr0.0 mm/hr 0.00 in0.0 mm
01:36 AM 45.3°F7.4°C 45.3°F7.4°C 100% - N16091.8 kmh N -- 29.74 in1007.1 mb 0.00 in0.0 mm 0.00 in/hr0.0 mm/hr 0.00 in0.0 mm
01:31 AM 45.5°F7.5°C 45.5°F7.5°C 100% - N16091.8 kmh N -- 29.74 in1007.1 mb 0.00 in0.0 mm 0.00 in/hr0.0 mm/hr 0.00 in0.0 mm
01:25 AM 45.5°F7.5°C 45.5°F7.5°C 100% - N16091.8 kmh N -- 29.74 in1007.1 mb 0.00 in0.0 mm 0.00 in/hr0.0 mm/hr 0.00 in0.0 mm
01:20 AM 45.5°F7.5°C 45.5°F7.5°C 100% - N16091.8 kmh N -- 29.74 in1007.1 mb 0.00 in0.0 mm 0.00 in/hr0.0 mm/hr 0.00 in0.0 mm
01:15 AM 45.5°F7.5°C 45.5°F7.5°C 100% - N16091.8 kmh N -- 29.74 in1007.1 mb 0.00 in0.0 mm 0.00 in/hr0.0 mm/hr 0.00 in0.0 mm
01:10 AM 45.7°F7.6°C 45.7°F7.6°C 100% - N16091.8 kmh N -- 29.74 in1007.1 mb 0.00 in0.0 mm 0.00 in/hr0.0 mm/hr 0.00 in0.0 mm
01:05 AM 45.7°F7.6°C 45.7°F7.6°C 100% - N16091.8 kmh N -- 29.74 in1007.1 mb 0.00 in0.0 mm 0.00 in/hr0.0 mm/hr 0.00 in0.0 mm
01:00 AM 45.9°F7.7°C 45.9°F7.7°C 100% - N16091.8 kmh N -- 29.74 in1007.1 mb 0.00 in0.0 mm 0.00 in/hr0.0 mm/hr 0.00 in0.0 mm
12:55 AM 46.0°F7.8°C 46.0°F7.8°C 100% - N16091.8 kmh N -- 29.74 in1007.1 mb 0.00 in0.0 mm 0.00 in/hr0.0 mm/hr 0.00 in0.0 mm
12:50 AM 46.0°F7.8°C 46.0°F7.8°C 100% - N16091.8 kmh N -- 29.74 in1007.1 mb 0.00 in0.0 mm 0.00 in/hr0.0 mm/hr 0.00 in0.0 mm
12:44 AM 46.2°F7.9°C 46.2°F7.9°C 100% - N16091.8 kmh N -- 29.74 in1007.1 mb 0.00 in0.0 mm 0.00 in/hr0.0 mm/hr 0.00 in0.0 mm
12:39 AM 46.4°F8.0°C 46.4°F8.0°C 100% - N16091.8 kmh N -- 29.77 in1008.1 mb 0.00 in0.0 mm 0.00 in/hr0.0 mm/hr 0.00 in0.0 mm
12:34 AM 46.4°F8.0°C 46.4°F8.0°C 100% - N16091.8 kmh N -- 29.77 in1008.1 mb 0.00 in0.0 mm 0.00 in/hr0.0 mm/hr 0.00 in0.0 mm
12:29 AM 46.6°F8.1°C 46.6°F8.1°C 100% - N16091.8 kmh N -- 29.77 in1008.1 mb 0.00 in0.0 mm 0.00 in/hr0.0 mm/hr 0.00 in0.0 mm
12:24 AM 46.8°F8.2°C 46.8°F8.2°C 100% - N16091.8 kmh N -- 29.77 in1008.1 mb 0.00 in0.0 mm 0.00 in/hr0.0 mm/hr 0.00 in0.0 mm
12:19 AM 46.8°F8.2°C 46.8°F8.2°C 100% - N16091.8 kmh N -- 29.77 in1008.1 mb 0.00 in0.0 mm 0.00 in/hr0.0 mm/hr 0.00 in0.0 mm
12:13 AM 46.8°F8.2°C 46.8°F8.2°C 100% - N16091.8 kmh N -- 29.77 in1008.1 mb 0.00 in0.0 mm 0.00 in/hr0.0 mm/hr 0.00 in0.0 mm
12:08 AM 46.9°F8.3°C 46.9°F8.3°C 100% - N16091.8 kmh N -- 29.77 in1008.1 mb 0.00 in0.0 mm 0.00 in/hr0.0 mm/hr 0.00 in0.0 mm
12:03 AM 46.9°F8.3°C 46.9°F8.3°C 100% - N16091.8 kmh N -- 29.77 in1008.1 mb 0.00 in0.0 mm 0.00 in/hr0.0 mm/hr 0.00 in0.0 mm